Time;durP1;ratioP1;P1;durP2;ratioP2;P2;SDS_P1;SDS_P2;PMS_P1;PMS_P2;Temp;Humidity;BMP_temperature;BMP_pressure;BME280_temperature;BME280_humidity;BME280_pressure;Samples;Min_cycle;Max_cycle;Signal;HPM_P1;HPM_P2
2021/04/28 00:02:05;;;;;;;;;;;;;;;26.96;29.47;100717.25;5099122;28;1009;-34
2021/04/28 00:04:30;;;;;;;;;;;;;;;27.06;29.55;100703.53;5098355;28;796;-38
2021/04/28 00:06:56;;;;;;;;;;;;;;;27.00;29.65;100691.59;5099414;28;779;-34
2021/04/28 00:09:21;;;;;;;;;;;;;;;26.99;29.52;100683.66;5099494;28;1967;-34
2021/04/28 00:11:46;;;;;;;;;;;;;;;27.04;29.34;100672.34;5099414;28;839;-37
2021/04/28 00:14:12;;;;;;;;;;;;;;;26.97;29.64;100681.16;5099251;28;740;-36
2021/04/28 00:16:37;;;;;;;;;;;;;;;26.96;29.56;100687.56;5099248;28;1029;-37
2021/04/28 00:19:03;;;;;;;;;;;;;;;26.99;29.39;100700.69;5099417;28;779;-37
2021/04/28 00:21:28;;;;;;;;;;;;;;;26.97;29.65;100718.94;5099061;28;771;-37
2021/04/28 00:23:53;;;;;;;;;;;;;;;27.13;29.35;100714.44;5099386;28;833;-38
2021/04/28 00:26:19;;;;;;;;;;;;;;;27.10;29.32;100714.78;5099394;28;727;-35
2021/04/28 00:28:44;;;;;;;;;;;;;;;26.99;29.71;100721.47;5098966;28;735;-35
2021/04/28 00:31:09;;;;;;;;;;;;;;;26.99;29.77;100727.69;5099023;28;1917;-33
2021/04/28 00:33:35;;;;;;;;;;;;;;;26.98;29.72;100719.75;5105791;28;1363;-37
2021/04/28 00:36:00;;;;;;;;;;;;;;;26.99;29.77;100716.06;5119217;28;826;-33
2021/04/28 00:38:25;;;;;;;;;;;;;;;27.02;29.56;100715.72;5119537;28;794;-37
2021/04/28 00:40:51;;;;;;;;;;;;;;;27.00;29.70;100715.88;5119310;28;740;-34
2021/04/28 00:43:16;;;;;;;;;;;;;;;27.02;29.44;100718.44;5119150;28;822;-36
2021/04/28 00:45:43;;;;;;;;;;;;;;;27.11;29.72;100711.09;5117972;28;1625;-34
2021/04/28 00:48:09;;;;;;;;;;;;;;;27.06;29.76;100724.31;5097536;28;1001;-35
2021/04/28 00:50:39;;;;;;;;;;;;;;;27.02;29.71;100719.28;5098048;28;1906;-36
2021/04/28 00:53:04;;;;;;;;;;;;;;;26.99;29.82;100719.59;5098786;28;815;-36
2021/04/28 00:55:29;;;;;;;;;;;;;;;27.05;29.59;100714.50;5098746;28;839;-35
2021/04/28 00:57:55;;;;;;;;;;;;;;;26.96;29.48;100719.94;5098395;28;748;-35
2021/04/28 01:00:20;;;;;;;;;;;;;;;27.08;29.69;100722.22;5098474;28;824;-34
2021/04/28 01:02:46;;;;;;;;;;;;;;;27.07;29.52;100709.78;5098374;28;1073;-35
2021/04/28 01:05:11;;;;;;;;;;;;;;;27.00;29.76;100704.22;5098180;28;804;-35
2021/04/28 01:07:37;;;;;;;;;;;;;;;26.97;29.67;100700.06;5098498;28;788;-36
2021/04/28 01:10:04;;;;;;;;;;;;;;;27.14;29.56;100702.63;5098691;28;1968;-34
2021/04/28 01:12:29;;;;;;;;;;;;;;;27.16;29.14;100705.94;5098046;28;823;-32
2021/04/28 01:14:54;;;;;;;;;;;;;;;27.12;29.54;100696.56;5097178;28;772;-35
2021/04/28 01:17:20;;;;;;;;;;;;;;;27.01;29.76;100692.41;5097845;28;910;-34
2021/04/28 01:19:45;;;;;;;;;;;;;;;27.07;29.46;100690.88;5097670;28;558;-38
2021/04/28 01:22:10;;;;;;;;;;;;;;;26.99;29.72;100695.28;5098450;28;961;-32
2021/04/28 01:24:36;;;;;;;;;;;;;;;27.05;29.67;100696.47;5098108;28;803;-33
2021/04/28 01:27:02;;;;;;;;;;;;;;;27.05;29.49;100687.50;5097804;28;826;-36
2021/04/28 01:29:28;;;;;;;;;;;;;;;27.14;29.59;100683.72;5096787;28;1972;-34
2021/04/28 01:31:53;;;;;;;;;;;;;;;27.15;29.59;100685.38;5093092;28;982;-32
2021/04/28 01:34:18;;;;;;;;;;;;;;;27.10;29.49;100695.91;5105839;28;1095;-37
2021/04/28 01:36:44;;;;;;;;;;;;;;;27.05;29.50;100684.81;5116846;28;863;-34
2021/04/28 01:39:10;;;;;;;;;;;;;;;27.05;29.59;100666.75;5116581;28;1037;-34
2021/04/28 01:41:36;;;;;;;;;;;;;;;27.01;29.65;100662.69;5117925;28;791;-34
2021/04/28 01:44:01;;;;;;;;;;;;;;;27.01;29.78;100673.50;5117841;28;1116;-37
2021/04/28 01:46:26;;;;;;;;;;;;;;;27.12;29.30;100691.16;5110125;28;1629;-34
2021/04/28 01:48:52;;;;;;;;;;;;;;;27.09;29.66;100694.22;5097473;28;850;-32
2021/04/28 01:51:17;;;;;;;;;;;;;;;27.08;29.69;100697.94;5097465;28;1971;-36
2021/04/28 01:53:42;;;;;;;;;;;;;;;27.08;29.57;100696.09;5096303;28;827;-36
2021/04/28 01:56:07;;;;;;;;;;;;;;;27.09;29.75;100688.84;5096214;28;811;-35
2021/04/28 01:58:33;;;;;;;;;;;;;;;27.07;29.73;100689.03;5098119;28;798;-37
2021/04/28 02:00:58;;;;;;;;;;;;;;;27.12;29.49;100702.81;5095518;28;994;-37
2021/04/28 02:03:24;;;;;;;;;;;;;;;27.10;29.57;100696.75;5091839;28;1006;-36
2021/04/28 02:05:49;;;;;;;;;;;;;;;27.05;29.71;100695.59;5077133;28;818;-36
2021/04/28 02:08:15;;;;;;;;;;;;;;;27.05;29.71;100701.84;5077189;28;788;-36
2021/04/28 02:10:40;;;;;;;;;;;;;;;27.08;29.61;100695.22;5076760;28;1893;-36
2021/04/28 02:13:05;;;;;;;;;;;;;;;27.05;29.63;100690.22;5076767;28;980;-38
2021/04/28 02:15:31;;;;;;;;;;;;;;;27.01;29.84;100685.19;5074925;28;853;-33
2021/04/28 02:17:57;;;;;;;;;;;;;;;27.12;29.72;100678.50;5089699;28;960;-33
2021/04/28 02:20:22;;;;;;;;;;;;;;;27.22;29.42;100677.38;5095920;28;771;-34
2021/04/28 02:22:47;;;;;;;;;;;;;;;27.07;29.70;100683.63;5095279;28;1326;-35
2021/04/28 02:25:13;;;;;;;;;;;;;;;27.12;29.49;100692.00;5095995;28;798;-40
2021/04/28 02:27:38;;;;;;;;;;;;;;;27.12;29.49;100699.25;5095671;28;884;-36
2021/04/28 02:30:07;;;;;;;;;;;;;;;27.11;29.71;100708.41;5096695;28;1902;-34
2021/04/28 02:32:32;;;;;;;;;;;;;;;27.15;29.66;100712.38;5096079;28;954;-35
2021/04/28 02:34:58;;;;;;;;;;;;;;;27.06;29.53;100711.63;5116507;28;1182;-32
2021/04/28 02:37:23;;;;;;;;;;;;;;;27.17;29.48;100715.75;5117035;28;834;-37
2021/04/28 02:39:52;;;;;;;;;;;;;;;27.20;29.35;100711.81;5117251;28;731;-35
2021/04/28 02:42:18;;;;;;;;;;;;;;;27.18;29.70;100722.81;5115836;28;764;-35
2021/04/28 02:44:43;;;;;;;;;;;;;;;27.21;29.52;100724.31;5115270;28;1135;-36
2021/04/28 02:47:09;;;;;;;;;;;;;;;27.18;29.88;100732.78;5093640;28;1637;-34
2021/04/28 02:49:34;;;;;;;;;;;;;;;27.25;29.35;100733.72;5076560;28;1905;-35
2021/04/28 02:51:59;;;;;;;;;;;;;;;27.16;29.70;100719.44;5076239;28;788;-33
2021/04/28 02:54:25;;;;;;;;;;;;;;;27.19;29.78;100734.47;5075326;28;827;-35
2021/04/28 02:56:50;;;;;;;;;;;;;;;27.15;29.87;100723.19;5075209;28;763;-34
2021/04/28 02:59:16;;;;;;;;;;;;;;;27.27;29.75;100715.47;5088109;28;1055;-34
2021/04/28 03:01:41;;;;;;;;;;;;;;;27.21;29.71;100717.03;5093812;28;947;-34
2021/04/28 03:04:07;;;;;;;;;;;;;;;27.22;29.65;100716.03;5095663;28;767;-38
2021/04/28 03:06:32;;;;;;;;;;;;;;;27.25;29.85;100720.22;5096445;28;839;-35
2021/04/28 03:08:58;;;;;;;;;;;;;;;27.22;29.70;100720.59;5095479;28;767;-37
2021/04/28 03:11:23;;;;;;;;;;;;;;;26.96;29.22;100717.25;5096000;28;1970;-36
2021/04/28 03:13:48;;;;;;;;;;;;;;;26.75;29.47;100710.69;5097766;28;764;-33
2021/04/28 03:16:14;;;;;;;;;;;;;;;26.85;29.14;100715.00;5100507;28;919;-38
2021/04/28 03:18:39;;;;;;;;;;;;;;;26.93;28.91;100717.63;5095942;28;942;-34
2021/04/28 03:21:05;;;;;;;;;;;;;;;26.86;29.44;100719.38;5111667;28;956;-33
2021/04/28 03:23:30;;;;;;;;;;;;;;;26.89;29.28;100727.13;5119626;28;800;-34
2021/04/28 03:25:56;;;;;;;;;;;;;;;27.02;28.92;100724.66;5120669;28;795;-32
2021/04/28 03:28:21;;;;;;;;;;;;;;;27.04;28.70;100734.44;5120294;28;859;-32
2021/04/28 03:30:46;;;;;;;;;;;;;;;27.07;28.79;100737.63;5120599;28;1909;-33
2021/04/28 03:33:12;;;;;;;;;;;;;;;27.20;28.70;100745.09;5106848;28;942;-39
2021/04/28 03:35:38;;;;;;;;;;;;;;;27.04;29.06;100737.13;5120503;28;779;-39
2021/04/28 03:38:03;;;;;;;;;;;;;;;26.84;29.23;100746.53;5120574;28;767;-35
2021/04/28 03:40:28;;;;;;;;;;;;;;;26.75;29.35;100753.88;5120251;28;767;-34
2021/04/28 03:42:54;;;;;;;;;;;;;;;26.80;29.14;100757.88;5120389;28;759;-32
2021/04/28 03:45:22;;;;;;;;;;;;;;;26.79;29.35;100762.47;5120226;28;1223;-32
2021/04/28 03:47:48;;;;;;;;;;;;;;;26.76;29.58;100755.53;5100962;28;1717;-34
2021/04/28 03:50:13;;;;;;;;;;;;;;;26.85;29.41;100752.78;5099637;28;1913;-40
2021/04/28 03:52:39;;;;;;;;;;;;;;;26.03;27.83;100753.09;5099865;28;768;-37
2021/04/28 03:55:07;;;;;;;;;;;;;;;25.18;29.29;100750.78;5099211;28;846;-33
2021/04/28 03:57:32;;;;;;;;;;;;;;;25.33;30.13;100756.31;5099733;28;919;-43
2021/04/28 03:59:58;;;;;;;;;;;;;;;25.72;28.88;100759.28;5099799;28;807;-38
2021/04/28 04:02:23;;;;;;;;;;;;;;;25.81;28.67;100758.22;5098559;28;1005;-39
2021/04/28 04:04:48;;;;;;;;;;;;;;;25.69;28.59;100749.69;5099692;28;771;-41
2021/04/28 04:07:13;;;;;;;;;;;;;;;25.36;29.34;100737.09;5099223;28;886;-42
2021/04/28 04:09:39;;;;;;;;;;;;;;;25.43;28.88;100745.34;5099222;28;1967;-38
2021/04/28 04:12:04;;;;;;;;;;;;;;;25.53;28.80;100755.91;5098689;28;1144;-41
2021/04/28 04:14:29;;;;;;;;;;;;;;;25.51;28.50;100757.94;5099774;28;819;-39
2021/04/28 04:16:55;;;;;;;;;;;;;;;25.03;29.62;100786.44;5098966;28;929;-40
2021/04/28 04:19:20;;;;;;;;;;;;;;;23.82;30.96;100781.19;5099294;28;803;-40
2021/04/28 04:21:45;;;;;;;;;;;;;;;23.46;31.39;100774.94;5099250;28;843;-41
2021/04/28 04:24:11;;;;;;;;;;;;;;;23.48;31.36;100782.84;5098530;28;774;-37
2021/04/28 04:26:36;;;;;;;;;;;;;;;23.94;30.50;100790.63;5099371;28;748;-35
2021/04/28 04:29:02;;;;;;;;;;;;;;;24.56;30.17;100798.63;5099132;28;749;-33
2021/04/28 04:31:27;;;;;;;;;;;;;;;25.35;29.59;100791.97;5098299;28;1905;-41
2021/04/28 04:33:52;;;;;;;;;;;;;;;25.75;28.82;100786.72;5109671;28;1177;-34
2021/04/28 04:36:18;;;;;;;;;;;;;;;25.83;29.08;100791.22;5119409;28;851;-44
2021/04/28 04:38:43;;;;;;;;;;;;;;;25.88;29.07;100790.72;5099790;28;1156;-43
2021/04/28 04:41:08;;;;;;;;;;;;;;;26.06;28.88;100798.56;5097877;28;1255;-38
2021/04/28 04:43:33;;;;;;;;;;;;;;;26.14;29.02;100800.41;5098972;28;827;-42
2021/04/28 04:45:59;;;;;;;;;;;;;;;26.06;29.45;100790.47;5098703;28;1589;-36
2021/04/28 04:48:24;;;;;;;;;;;;;;;26.26;29.09;100784.66;5098215;28;926;-43
2021/04/28 04:50:49;;;;;;;;;;;;;;;26.33;29.09;100784.81;5096985;28;1997;-37
2021/04/28 04:53:14;;;;;;;;;;;;;;;26.31;29.25;100789.53;5098375;28;807;-42
2021/04/28 04:55:40;;;;;;;;;;;;;;;26.20;29.51;100794.28;5098498;28;803;-35
2021/04/28 04:58:05;;;;;;;;;;;;;;;26.36;29.30;100784.50;5098905;28;755;-40
2021/04/28 05:00:30;;;;;;;;;;;;;;;26.47;29.32;100792.19;5098017;28;840;-34
2021/04/28 05:02:56;;;;;;;;;;;;;;;26.46;29.24;100790.47;5098233;28;946;-39
2021/04/28 05:05:21;;;;;;;;;;;;;;;26.51;29.52;100798.88;5098060;28;847;-41
2021/04/28 05:07:46;;;;;;;;;;;;;;;26.70;29.44;100793.19;5098007;28;751;-43
2021/04/28 05:10:12;;;;;;;;;;;;;;;26.76;29.19;100796.03;5098217;28;1906;-38
2021/04/28 05:12:37;;;;;;;;;;;;;;;26.51;29.34;100804.28;5098335;28;831;-37
2021/04/28 05:15:03;;;;;;;;;;;;;;;26.57;30.00;100810.84;5098028;28;773;-37
2021/04/28 05:17:28;;;;;;;;;;;;;;;26.74;29.39;100808.84;5097953;28;930;-37
2021/04/28 05:19:54;;;;;;;;;;;;;;;25.97;29.08;100694.50;5097802;28;796;-42
2021/04/28 05:22:23;;;;;;;;;;;;;;;26.60;29.94;100801.53;5098214;28;799;-40
2021/04/28 05:24:48;;;;;;;;;;;;;;;26.75;29.42;100807.84;5098073;28;803;-40
2021/04/28 05:27:13;;;;;;;;;;;;;;;26.80;29.58;100798.34;5097856;28;748;-43
2021/04/28 05:29:39;;;;;;;;;;;;;;;26.72;29.43;100800.13;5097816;28;1960;-37
2021/04/28 05:32:04;;;;;;;;;;;;;;;26.58;30.44;100800.84;5097510;28;950;-41
2021/04/28 05:34:29;;;;;;;;;;;;;;;26.65;30.00;100807.22;5113513;28;1194;-36
2021/04/28 05:36:54;;;;;;;;;;;;;;;26.59;29.83;100813.34;5117188;28;783;-40
2021/04/28 05:39:20;;;;;;;;;;;;;;;26.27;29.59;100819.56;5118039;28;840;-36
2021/04/28 05:41:45;;;;;;;;;;;;;;;26.23;29.64;100820.91;5117889;28;799;-39
2021/04/28 05:44:10;;;;;;;;;;;;;;;26.36;29.49;100827.63;5117949;28;1371;-36
2021/04/28 05:46:37;;;;;;;;;;;;;;;26.32;29.88;100824.41;5108836;28;1612;-39
2021/04/28 05:49:02;;;;;;;;;;;;;;;26.18;30.56;100820.59;5097648;28;834;-36
2021/04/28 05:51:28;;;;;;;;;;;;;;;26.24;29.66;100808.28;5097607;28;1963;-39
2021/04/28 05:53:53;;;;;;;;;;;;;;;26.32;30.23;100804.69;5097510;28;791;-40
2021/04/28 05:56:18;;;;;;;;;;;;;;;26.04;30.75;100796.03;5097012;28;818;-38
2021/04/28 05:58:44;;;;;;;;;;;;;;;26.18;30.38;100801.72;5098084;28;770;-39
2021/04/28 06:01:09;;;;;;;;;;;;;;;26.19;30.55;100800.72;5097283;28;767;-37
2021/04/28 06:03:34;;;;;;;;;;;;;;;26.00;31.07;100794.72;5096972;28;930;-40
2021/04/28 06:05:59;;;;;;;;;;;;;;;26.12;30.81;100800.56;5097371;28;843;-40
2021/04/28 06:08:25;;;;;;;;;;;;;;;26.26;30.19;100792.75;5097144;28;775;-39
2021/04/28 06:10:50;;;;;;;;;;;;;;;26.33;30.13;100809.09;5097322;28;1964;-34
2021/04/28 06:13:15;;;;;;;;;;;;;;;26.14;30.36;100803.91;5097157;28;854;-42
2021/04/28 06:15:40;;;;;;;;;;;;;;;26.12;30.23;100799.72;5096887;28;807;-40
2021/04/28 06:18:06;;;;;;;;;;;;;;;25.85;30.75;100791.91;5096530;28;1339;-42
2021/04/28 06:20:32;;;;;;;;;;;;;;;25.77;30.94;100794.63;5096636;28;831;-35
2021/04/28 06:22:57;;;;;;;;;;;;;;;26.09;30.55;100795.50;5096846;28;838;-36
2021/04/28 06:25:22;;;;;;;;;;;;;;;26.26;30.04;100801.69;5096626;28;819;-43
2021/04/28 06:27:48;;;;;;;;;;;;;;;26.19;30.13;100798.03;5097258;28;819;-41
2021/04/28 06:30:13;;;;;;;;;;;;;;;26.20;30.08;100794.28;5096563;28;1898;-34
2021/04/28 06:32:38;;;;;;;;;;;;;;;26.22;30.10;100794.97;5096753;28;946;-36
2021/04/28 06:35:04;;;;;;;;;;;;;;;26.20;30.07;100794.28;5117171;28;844;-38
2021/04/28 06:37:33;;;;;;;;;;;;;;;26.22;29.83;100797.66;5117007;28;736;-41
2021/04/28 06:39:58;;;;;;;;;;;;;;;26.21;29.78;100797.84;5117115;28;801;-41
2021/04/28 06:42:23;;;;;;;;;;;;;;;26.22;29.64;100794.13;5117409;28;802;-39
2021/04/28 06:44:49;;;;;;;;;;;;;;;26.29;29.70;100793.22;5116810;28;1315;-35
2021/04/28 06:47:14;;;;;;;;;;;;;;;26.07;30.35;100799.41;5101990;28;1616;-41
2021/04/28 06:49:40;;;;;;;;;;;;;;;26.03;29.82;100801.59;5096472;28;2031;-40
2021/04/28 06:52:05;;;;;;;;;;;;;;;26.02;29.73;100810.72;5096488;28;886;-38
2021/04/28 06:54:31;;;;;;;;;;;;;;;26.06;29.54;100816.59;5096965;28;812;-42
2021/04/28 06:56:56;;;;;;;;;;;;;;;26.04;29.08;100816.78;5096493;28;905;-42
2021/04/28 06:59:22;;;;;;;;;;;;;;;26.17;30.09;100816.22;5096699;28;803;-36
2021/04/28 07:01:51;;;;;;;;;;;;;;;26.24;30.39;100825.28;5095815;28;949;-36
2021/04/28 07:04:17;;;;;;;;;;;;;;;26.37;30.16;100832.84;5096101;28;815;-42
2021/04/28 07:06:42;;;;;;;;;;;;;;;26.29;30.71;100839.06;5096416;28;727;-36
2021/04/28 07:09:07;;;;;;;;;;;;;;;26.38;30.28;100842.63;5096483;28;768;-37
2021/04/28 07:11:33;;;;;;;;;;;;;;;26.35;30.64;100848.38;5096075;28;1959;-34
2021/04/28 07:13:58;;;;;;;;;;;;;;;26.42;30.53;100845.81;5096448;28;871;-35
2021/04/28 07:16:23;;;;;;;;;;;;;;;26.37;30.78;100848.19;5095844;28;934;-38
2021/04/28 07:18:49;;;;;;;;;;;;;;;26.50;30.48;100847.63;5096148;28;823;-31
2021/04/28 07:21:14;;;;;;;;;;;;;;;26.46;30.42;100854.41;5096189;28;743;-44
2021/04/28 07:23:40;;;;;;;;;;;;;;;26.44;30.48;100859.13;5096028;28;1516;-41
2021/04/28 07:26:05;;;;;;;;;;;;;;;26.59;30.29;100867.31;5095764;28;843;-42
2021/04/28 07:28:31;;;;;;;;;;;;;;;26.65;30.17;100851.25;5095951;28;836;-41
2021/04/28 07:30:56;;;;;;;;;;;;;;;26.64;30.43;100857.66;5096052;28;1963;-37
2021/04/28 07:33:21;;;;;;;;;;;;;;;26.61;30.85;100857.19;5102081;28;1001;-41
2021/04/28 07:35:47;;;;;;;;;;;;;;;26.64;30.72;100852.25;5116610;28;807;-41
2021/04/28 07:38:12;;;;;;;;;;;;;;;26.74;30.81;100853.91;5116366;28;819;-35
2021/04/28 07:40:37;;;;;;;;;;;;;;;26.68;30.64;100855.44;5116518;28;756;-41
2021/04/28 07:43:02;;;;;;;;;;;;;;;26.72;30.76;100847.84;5116510;28;793;-36
2021/04/28 07:45:28;;;;;;;;;;;;;;;26.77;30.25;100859.78;5116113;28;1085;-40
2021/04/28 07:47:53;;;;;;;;;;;;;;;26.74;30.26;100865.50;5096687;28;1759;-36
2021/04/28 07:50:18;;;;;;;;;;;;;;;26.76;30.53;100858.09;5096122;28;1914;-35
2021/04/28 07:52:44;;;;;;;;;;;;;;;26.78;30.47;100861.47;5096004;28;727;-40
2021/04/28 07:55:10;;;;;;;;;;;;;;;26.74;30.60;100862.81;5096364;28;783;-34
2021/04/28 07:57:35;;;;;;;;;;;;;;;26.81;30.32;100876.44;5095936;28;843;-42
2021/04/28 08:00:01;;;;;;;;;;;;;;;26.88;30.18;100876.56;5096986;28;795;-35
2021/04/28 08:02:26;;;;;;;;;;;;;;;26.79;30.35;100862.31;5099386;28;1005;-36
2021/04/28 08:04:52;;;;;;;;;;;;;;;26.83;30.58;100866.31;5099446;28;790;-35
2021/04/28 08:07:17;;;;;;;;;;;;;;;26.89;30.19;100868.28;5099515;28;1081;-42
2021/04/28 08:09:48;;;;;;;;;;;;;;;26.81;30.59;100864.81;5099420;28;1960;-35
2021/04/28 08:12:14;;;;;;;;;;;;;;;26.92;30.54;100866.25;5099321;28;748;-42
2021/04/28 08:14:39;;;;;;;;;;;;;;;26.92;30.55;100869.81;5099468;28;805;-36
2021/04/28 08:17:04;;;;;;;;;;;;;;;26.93;30.55;100860.69;5098720;28;931;-38
2021/04/28 08:19:30;;;;;;;;;;;;;;;26.97;30.33;100866.56;5099556;28;807;-41
2021/04/28 08:21:55;;;;;;;;;;;;;;;26.68;30.78;100860.84;5099255;28;755;-41
2021/04/28 08:24:21;;;;;;;;;;;;;;;26.54;30.77;100854.34;5099195;28;794;-41
2021/04/28 08:26:46;;;;;;;;;;;;;;;26.67;30.76;100859.16;5099166;28;732;-42
2021/04/28 08:29:12;;;;;;;;;;;;;;;26.76;30.50;100850.00;5099080;28;774;-37
2021/04/28 08:31:37;;;;;;;;;;;;;;;26.86;30.29;100855.16;5098429;28;1906;-43
2021/04/28 08:34:02;;;;;;;;;;;;;;;26.96;30.14;100854.09;5110945;28;1106;-36
2021/04/28 08:36:29;;;;;;;;;;;;;;;26.95;30.30;100857.81;5119430;28;767;-43
2021/04/28 08:38:54;;;;;;;;;;;;;;;27.03;30.17;100852.38;5117756;28;1267;-43
2021/04/28 08:41:20;;;;;;;;;;;;;;;27.00;30.34;100841.91;5119104;28;752;-43
2021/04/28 08:43:45;;;;;;;;;;;;;;;27.06;29.98;100841.22;5119035;28;851;-40
2021/04/28 08:46:11;;;;;;;;;;;;;;;27.09;30.16;100835.44;5113658;28;1522;-42
2021/04/28 08:48:36;;;;;;;;;;;;;;;27.08;30.26;100831.09;5097333;28;926;-42
2021/04/28 08:51:01;;;;;;;;;;;;;;;27.00;30.52;100839.22;5098548;28;1969;-34
2021/04/28 08:53:28;;;;;;;;;;;;;;;27.02;30.25;100835.34;5098428;28;798;-35
2021/04/28 08:55:53;;;;;;;;;;;;;;;26.89;30.27;100835.91;5099022;28;806;-35
2021/04/28 08:58:20;;;;;;;;;;;;;;;26.82;30.35;100829.56;5098638;28;764;-37
2021/04/28 09:00:46;;;;;;;;;;;;;;;26.81;30.52;100840.53;5098242;28;827;-41
2021/04/28 09:03:12;;;;;;;;;;;;;;;26.51;30.51;100838.50;5093339;28;939;-42
2021/04/28 09:05:38;;;;;;;;;;;;;;;26.09;30.66;100833.25;5078212;28;796;-41
2021/04/28 09:08:10;;;;;;;;;;;;;;;25.87;31.12;100837.53;5077662;28;826;-40
2021/04/28 09:10:35;;;;;;;;;;;;;;;26.17;30.91;100840.50;5077710;28;1964;-41
2021/04/28 09:13:22;;;;;;;;;;;;;;;26.41;30.79;100836.88;5092204;28;1181;-43
2021/04/28 09:15:50;;;;;;;;;;;;;;;26.54;30.89;100838.16;5098232;28;776;-44
2021/04/28 09:18:16;;;;;;;;;;;;;;;26.51;30.99;100831.25;5097655;28;954;-42
2021/04/28 09:20:46;;;;;;;;;;;;;;;26.39;31.19;100828.09;5097993;28;748;-46
2021/04/28 09:23:13;;;;;;;;;;;;;;;26.65;30.77;100823.41;5098268;28;804;-45
2021/04/28 09:25:39;;;;;;;;;;;;;;;26.48;30.01;100822.66;5097900;28;1048;-43
2021/04/28 09:28:17;;;;;;;;;;;;;;;26.37;30.55;100824.75;5097602;28;776;-38
2021/04/28 09:30:42;;;;;;;;;;;;;;;26.27;30.79;100827.66;5097125;28;1960;-42
2021/04/28 09:33:07;;;;;;;;;;;;;;;26.24;31.27;100819.06;5099935;28;1074;-42
2021/04/28 09:35:33;;;;;;;;;;;;;;;26.14;31.58;100825.47;5118134;28;787;-35
2021/04/28 09:38:01;;;;;;;;;;;;;;;26.31;31.11;100814.63;5118367;28;820;-43
2021/04/28 09:40:42;;;;;;;;;;;;;;;26.38;31.22;100828.28;5117999;28;805;-43
2021/04/28 09:43:08;;;;;;;;;;;;;;;26.43;30.91;100817.81;5118414;28;771;-43
2021/04/28 09:45:40;;;;;;;;;;;;;;;26.41;31.09;100820.69;5118068;28;1244;-35
2021/04/28 09:48:05;;;;;;;;;;;;;;;26.42;30.91;100816.13;5096980;28;961;-42
2021/04/28 09:50:31;;;;;;;;;;;;;;;26.37;30.92;100811.28;5095874;28;1909;-43
2021/04/28 09:52:56;;;;;;;;;;;;;;;26.40;30.99;100810.91;5097622;28;783;-44
2021/04/28 09:55:21;;;;;;;;;;;;;;;26.46;30.91;100808.53;5097333;28;755;-32
2021/04/28 09:57:47;;;;;;;;;;;;;;;26.48;30.89;100807.34;5096270;28;769;-43
2021/04/28 10:00:20;;;;;;;;;;;;;;;26.53;30.91;100815.72;5097184;28;759;-43
2021/04/28 10:02:58;;;;;;;;;;;;;;;26.49;31.06;100813.56;5092067;28;962;-43
2021/04/28 10:05:34;;;;;;;;;;;;;;;26.55;30.77;100809.31;5077004;28;768;-42
2021/04/28 10:08:34;;;;;;;;;;;;;;;26.50;31.02;100807.16;5076532;28;893;-40
2021/04/28 10:11:00;;;;;;;;;;;;;;;26.37;31.03;100805.03;5034632;28;2321;-35
2021/04/28 10:13:26;;;;;;;;;;;;;;;26.37;29.56;100805.88;5067200;28;1030;-35
2021/04/28 10:15:51;;;;;;;;;;;;;;;26.40;30.37;100807.38;5076017;28;819;-33
2021/04/28 10:18:18;;;;;;;;;;;;;;;26.30;30.73;100799.47;5094109;28;951;-42
2021/04/28 10:20:44;;;;;;;;;;;;;;;26.19;30.75;100805.25;5096995;28;810;-43
2021/04/28 10:23:10;;;;;;;;;;;;;;;26.30;30.94;100802.16;5095909;28;728;-34
2021/04/28 10:25:35;;;;;;;;;;;;;;;26.45;30.48;100799.59;5096441;28;959;-42
2021/04/28 10:28:01;;;;;;;;;;;;;;;26.50;30.51;100793.66;5096942;28;740;-35
2021/04/28 10:30:26;;;;;;;;;;;;;;;26.46;30.46;100793.16;5096911;28;1969;-43
2021/04/28 10:32:52;;;;;;;;;;;;;;;26.53;29.97;100786.06;5085644;28;994;-30
2021/04/28 10:35:18;;;;;;;;;;;;;;;26.57;29.91;100791.94;5115987;28;823;-42
2021/04/28 10:37:46;;;;;;;;;;;;;;;26.60;30.30;100788.88;5116999;28;833;-34
2021/04/28 10:40:14;;;;;;;;;;;;;;;26.63;30.17;100783.13;5115573;28;835;-36
2021/04/28 10:42:40;;;;;;;;;;;;;;;26.59;30.32;100779.09;5117025;28;759;-41
2021/04/28 10:45:05;;;;;;;;;;;;;;;26.56;30.36;100778.63;5116728;28;1041;-39
2021/04/28 10:47:38;;;;;;;;;;;;;;;26.56;30.16;100770.53;5100453;28;1592;-39
2021/04/28 10:50:07;;;;;;;;;;;;;;;26.54;30.37;100770.72;5096117;28;1979;-38
2021/04/28 10:52:33;;;;;;;;;;;;;;;26.61;30.25;100781.66;5096238;28;748;-38
2021/04/28 10:54:58;;;;;;;;;;;;;;;26.67;30.47;100786.31;5096643;28;799;-31
2021/04/28 10:57:37;;;;;;;;;;;;;;;26.78;29.97;100776.94;5096457;28;834;-33
2021/04/28 11:00:20;;;;;;;;;;;;;;;26.81;30.01;100778.47;5096803;28;775;-39
2021/04/28 11:02:47;;;;;;;;;;;;;;;26.78;30.03;100772.41;5095938;28;967;-33
2021/04/28 11:05:26;;;;;;;;;;;;;;;26.84;29.83;100789.72;5096267;28;831;-31
2021/04/28 11:07:52;;;;;;;;;;;;;;;26.82;30.25;100783.69;5096221;28;859;-33
2021/04/28 11:10:23;;;;;;;;;;;;;;;26.86;30.09;100787.69;5096382;28;1914;-41
2021/04/28 11:13:07;;;;;;;;;;;;;;;26.88;29.80;100787.50;5096268;28;805;-38
2021/04/28 11:15:51;;;;;;;;;;;;;;;26.84;30.13;100780.81;5096411;28;728;-40
2021/04/28 11:18:36;;;;;;;;;;;;;;;26.76;30.31;100777.13;5095801;28;974;-40
2021/04/28 11:21:16;;;;;;;;;;;;;;;26.93;29.96;100781.56;5096466;28;804;-33
2021/04/28 11:24:00;;;;;;;;;;;;;;;26.80;30.47;100783.00;5096363;28;748;-40
2021/04/28 11:26:26;;;;;;;;;;;;;;;26.75;30.21;100790.81;5096044;28;744;-40
2021/04/28 11:28:54;;;;;;;;;;;;;;;26.70;30.37;100785.94;5094866;28;1320;-39
2021/04/28 11:31:38;;;;;;;;;;;;;;;26.85;30.25;100772.53;5095988;28;1964;-30
2021/04/28 11:34:22;;;;;;;;;;;;;;;26.85;30.07;100780.63;5107896;28;1122;-31
2021/04/28 11:37:06;;;;;;;;;;;;;;;26.93;29.77;100768.06;5120629;28;858;-39
2021/04/28 11:39:42;;;;;;;;;;;;;;;26.97;29.91;100766.69;5120048;28;609;-32
2021/04/28 11:42:19;;;;;;;;;;;;;;;27.02;29.46;100765.16;5120559;28;855;-40
2021/04/28 11:44:44;;;;;;;;;;;;;;;26.97;29.84;100762.13;5120372;28;1296;-35
2021/04/28 11:47:10;;;;;;;;;;;;;;;26.81;30.21;100767.66;5106200;28;1584;-33
2021/04/28 11:49:39;;;;;;;;;;;;;;;26.76;30.21;100758.25;5099857;28;1901;-36
2021/04/28 11:52:05;;;;;;;;;;;;;;;26.74;30.44;100762.97;5100151;28;795;-42
2021/04/28 11:54:31;;;;;;;;;;;;;;;26.80;30.18;100764.13;5099689;28;842;-33
2021/04/28 11:56:57;;;;;;;;;;;;;;;26.70;30.41;100772.47;5100146;28;796;-39
2021/04/28 11:59:28;;;;;;;;;;;;;;;26.70;30.58;100769.75;5099951;28;786;-34
2021/04/28 12:02:09;;;;;;;;;;;;;;;26.81;30.28;100771.19;5098674;28;997;-33
2021/04/28 12:04:38;;;;;;;;;;;;;;;26.72;30.69;100772.28;5099728;28;740;-38
2021/04/28 12:07:04;;;;;;;;;;;;;;;26.55;29.91;100772.38;5099481;28;736;-31
2021/04/28 12:09:30;;;;;;;;;;;;;;;26.27;29.95;100760.22;5099378;28;846;-40
2021/04/28 12:12:11;;;;;;;;;;;;;;;24.69;30.58;100774.78;5099810;28;1910;-35
2021/04/28 12:14:37;;;;;;;;;;;;;;;24.56;31.32;100769.88;5099298;28;775;-30
2021/04/28 12:17:02;;;;;;;;;;;;;;;23.81;32.92;100764.22;5098693;28;922;-34
2021/04/28 12:19:28;;;;;;;;;;;;;;;22.35;34.69;100758.16;5099254;28;748;-35
2021/04/28 12:21:54;;;;;;;;;;;;;;;22.91;34.61;100760.72;5099078;28;848;-36
2021/04/28 12:24:30;;;;;;;;;;;;;;;23.87;31.94;100752.00;5099358;28;831;-34
2021/04/28 12:27:01;;;;;;;;;;;;;;;24.51;31.64;100742.63;5099194;28;815;-36
2021/04/28 12:29:26;;;;;;;;;;;;;;;24.34;31.69;100739.91;5098903;28;791;-34
2021/04/28 12:31:52;;;;;;;;;;;;;;;24.45;31.61;100741.47;5098581;28;1977;-34
2021/04/28 12:34:17;;;;;;;;;;;;;;;24.62;31.52;100740.66;5111629;28;1518;-28
2021/04/28 12:36:43;;;;;;;;;;;;;;;24.78;31.46;100737.13;5119395;28;831;-31
2021/04/28 12:39:08;;;;;;;;;;;;;;;24.90;31.29;100743.00;5119736;28;756;-33
2021/04/28 12:41:34;;;;;;;;;;;;;;;24.77;31.13;100746.22;5119452;28;807;-32
2021/04/28 12:43:59;;;;;;;;;;;;;;;24.56;31.29;100744.84;5118227;28;1081;-31
2021/04/28 12:46:24;;;;;;;;;;;;;;;24.53;31.40;100759.47;5107875;28;1624;-34
2021/04/28 12:48:50;;;;;;;;;;;;;;;24.49;30.80;100751.91;5097187;28;975;-35
2021/04/28 12:51:15;;;;;;;;;;;;;;;24.48;31.06;100748.34;5098553;28;1918;-30